sensor_id;sensor_type;location;lat;lon;timestamp;temperature;humidity
11497;DHT22;5805;51.542;7.230;2023-05-18T00:01:34;10.50;99.90
11497;DHT22;5805;51.542;7.230;2023-05-18T00:04:01;10.30;99.90
11497;DHT22;5805;51.542;7.230;2023-05-18T00:06:27;10.30;99.90
11497;DHT22;5805;51.542;7.230;2023-05-18T00:08:53;10.30;99.90
11497;DHT22;5805;51.542;7.230;2023-05-18T00:11:18;10.30;99.90
11497;DHT22;5805;51.542;7.230;2023-05-18T00:13:44;10.30;99.90
11497;DHT22;5805;51.542;7.230;2023-05-18T00:16:10;10.30;99.90
11497;DHT22;5805;51.542;7.230;2023-05-18T00:18:35;10.30;99.90
11497;DHT22;5805;51.542;7.230;2023-05-18T00:21:02;10.20;99.90
11497;DHT22;5805;51.542;7.230;2023-05-18T00:23:29;10.10;99.90
11497;DHT22;5805;51.542;7.230;2023-05-18T00:25:56;10.10;99.90
11497;DHT22;5805;51.542;7.230;2023-05-18T00:28:21;10.10;99.90
11497;DHT22;5805;51.542;7.230;2023-05-18T00:30:47;10.10;99.90
11497;DHT22;5805;51.542;7.230;2023-05-18T00:33:13;10.10;99.90
11497;DHT22;5805;51.542;7.230;2023-05-18T00:35:39;10.00;99.90
11497;DHT22;5805;51.542;7.230;2023-05-18T00:38:06;10.00;99.90
11497;DHT22;5805;51.542;7.230;2023-05-18T00:40:32;10.00;99.90
11497;DHT22;5805;51.542;7.230;2023-05-18T00:42:57;10.10;99.90
11497;DHT22;5805;51.542;7.230;2023-05-18T00:45:23;10.20;99.90
11497;DHT22;5805;51.542;7.230;2023-05-18T00:47:49;10.00;99.90
11497;DHT22;5805;51.542;7.230;2023-05-18T00:50:14;9.90;99.90
11497;DHT22;5805;51.542;7.230;2023-05-18T00:52:41;9.80;99.90
11497;DHT22;5805;51.542;7.230;2023-05-18T00:55:11;9.80;99.90
11497;DHT22;5805;51.542;7.230;2023-05-18T00:57:37;9.80;99.90
11497;DHT22;5805;51.542;7.230;2023-05-18T01:00:03;9.90;99.90
11497;DHT22;5805;51.542;7.230;2023-05-18T01:02:29;9.90;99.90
11497;DHT22;5805;51.542;7.230;2023-05-18T01:04:55;9.80;99.90
11497;DHT22;5805;51.542;7.230;2023-05-18T01:07:20;9.80;99.90
11497;DHT22;5805;51.542;7.230;2023-05-18T01:09:46;9.70;99.90
11497;DHT22;5805;51.542;7.230;2023-05-18T01:12:20;9.60;99.90
11497;DHT22;5805;51.542;7.230;2023-05-18T01:14:51;9.60;99.90
11497;DHT22;5805;51.542;7.230;2023-05-18T01:17:24;9.50;99.90
11497;DHT22;5805;51.542;7.230;2023-05-18T01:20:09;9.50;99.90
11497;DHT22;5805;51.542;7.230;2023-05-18T01:25:32;9.40;99.90
11497;DHT22;5805;51.542;7.230;2023-05-18T01:28:11;9.50;99.90
11497;DHT22;5805;51.542;7.230;2023-05-18T01:30:40;9.40;99.90
11497;DHT22;5805;51.542;7.230;2023-05-18T01:33:06;9.70;99.90
11497;DHT22;5805;51.542;7.230;2023-05-18T01:35:32;9.40;99.90
11497;DHT22;5805;51.542;7.230;2023-05-18T01:37:58;9.30;99.90
11497;DHT22;5805;51.542;7.230;2023-05-18T01:40:25;9.20;99.90
11497;DHT22;5805;51.542;7.230;2023-05-18T01:42:55;9.30;99.90
11497;DHT22;5805;51.542;7.230;2023-05-18T01:45:26;9.30;99.90
11497;DHT22;5805;51.542;7.230;2023-05-18T01:47:56;9.30;99.90
11497;DHT22;5805;51.542;7.230;2023-05-18T01:50:30;9.40;99.90
11497;DHT22;5805;51.542;7.230;2023-05-18T01:53:01;9.40;99.90
11497;DHT22;5805;51.542;7.230;2023-05-18T01:55:29;9.40;99.90
11497;DHT22;5805;51.542;7.230;2023-05-18T01:57:57;9.40;99.90
11497;DHT22;5805;51.542;7.230;2023-05-18T02:00:26;9.40;99.90
11497;DHT22;5805;51.542;7.230;2023-05-18T02:02:52;9.40;99.90
11497;DHT22;5805;51.542;7.230;2023-05-18T02:05:18;9.40;99.90
11497;DHT22;5805;51.542;7.230;2023-05-18T02:07:43;9.30;99.90
11497;DHT22;5805;51.542;7.230;2023-05-18T02:10:10;9.30;99.90
11497;DHT22;5805;51.542;7.230;2023-05-18T02:12:36;9.30;99.90
11497;DHT22;5805;51.542;7.230;2023-05-18T02:15:02;9.20;99.90
11497;DHT22;5805;51.542;7.230;2023-05-18T02:17:29;9.20;99.90
11497;DHT22;5805;51.542;7.230;2023-05-18T02:19:55;9.30;99.90
11497;DHT22;5805;51.542;7.230;2023-05-18T02:22:20;9.20;99.90
11497;DHT22;5805;51.542;7.230;2023-05-18T02:24:46;9.20;99.90
11497;DHT22;5805;51.542;7.230;2023-05-18T02:27:12;9.10;99.90
11497;DHT22;5805;51.542;7.230;2023-05-18T02:29:38;9.20;99.90
11497;DHT22;5805;51.542;7.230;2023-05-18T02:32:04;9.10;99.90
11497;DHT22;5805;51.542;7.230;2023-05-18T02:34:31;9.10;99.90
11497;DHT22;5805;51.542;7.230;2023-05-18T02:36:57;9.70;99.90
11497;DHT22;5805;51.542;7.230;2023-05-18T02:39:22;9.20;99.90
11497;DHT22;5805;51.542;7.230;2023-05-18T02:41:48;8.90;99.90
11497;DHT22;5805;51.542;7.230;2023-05-18T02:44:14;9.00;99.90
11497;DHT22;5805;51.542;7.230;2023-05-18T02:46:39;9.00;99.90
11497;DHT22;5805;51.542;7.230;2023-05-18T02:49:05;9.00;99.90
11497;DHT22;5805;51.542;7.230;2023-05-18T02:51:32;8.90;99.90
11497;DHT22;5805;51.542;7.230;2023-05-18T02:53:58;8.90;99.90
11497;DHT22;5805;51.542;7.230;2023-05-18T02:56:23;8.90;99.90
11497;DHT22;5805;51.542;7.230;2023-05-18T02:58:49;8.90;99.90
11497;DHT22;5805;51.542;7.230;2023-05-18T03:01:15;8.90;99.90
11497;DHT22;5805;51.542;7.230;2023-05-18T03:03:40;8.80;99.90
11497;DHT22;5805;51.542;7.230;2023-05-18T03:06:07;8.80;99.90
11497;DHT22;5805;51.542;7.230;2023-05-18T03:08:34;8.90;99.90
11497;DHT22;5805;51.542;7.230;2023-05-18T03:11:00;8.80;99.90
11497;DHT22;5805;51.542;7.230;2023-05-18T03:13:26;8.80;99.90
11497;DHT22;5805;51.542;7.230;2023-05-18T03:15:51;8.70;99.90
11497;DHT22;5805;51.542;7.230;2023-05-18T03:18:17;8.70;99.90
11497;DHT22;5805;51.542;7.230;2023-05-18T03:20:43;8.70;99.90
11497;DHT22;5805;51.542;7.230;2023-05-18T03:23:08;8.70;99.90
11497;DHT22;5805;51.542;7.230;2023-05-18T03:25:35;8.70;99.90
11497;DHT22;5805;51.542;7.230;2023-05-18T03:28:01;8.70;99.90
11497;DHT22;5805;51.542;7.230;2023-05-18T03:30:27;8.80;99.90
11497;DHT22;5805;51.542;7.230;2023-05-18T03:32:53;8.80;99.90
11497;DHT22;5805;51.542;7.230;2023-05-18T03:35:18;8.80;99.90
11497;DHT22;5805;51.542;7.230;2023-05-18T03:37:44;8.80;99.90
11497;DHT22;5805;51.542;7.230;2023-05-18T03:40:13;8.70;99.90
11497;DHT22;5805;51.542;7.230;2023-05-18T03:42:41;8.60;99.90
11497;DHT22;5805;51.542;7.230;2023-05-18T03:45:08;8.60;99.90
11497;DHT22;5805;51.542;7.230;2023-05-18T03:47:34;8.70;99.90
11497;DHT22;5805;51.542;7.230;2023-05-18T03:49:59;8.60;99.90
11497;DHT22;5805;51.542;7.230;2023-05-18T03:52:25;8.60;99.90
11497;DHT22;5805;51.542;7.230;2023-05-18T03:54:51;8.60;99.90
11497;DHT22;5805;51.542;7.230;2023-05-18T03:57:17;8.50;99.90
11497;DHT22;5805;51.542;7.230;2023-05-18T03:59:44;8.60;99.90
11497;DHT22;5805;51.542;7.230;2023-05-18T04:02:10;8.60;99.90
11497;DHT22;5805;51.542;7.230;2023-05-18T04:04:36;8.70;99.90
11497;DHT22;5805;51.542;7.230;2023-05-18T04:07:02;8.70;99.90
11497;DHT22;5805;51.542;7.230;2023-05-18T04:09:28;8.70;99.90
11497;DHT22;5805;51.542;7.230;2023-05-18T04:11:53;8.70;99.90
11497;DHT22;5805;51.542;7.230;2023-05-18T04:14:19;8.70;99.90
11497;DHT22;5805;51.542;7.230;2023-05-18T04:16:46;8.80;99.90
11497;DHT22;5805;51.542;7.230;2023-05-18T04:19:12;8.80;99.90
11497;DHT22;5805;51.542;7.230;2023-05-18T04:21:37;8.70;99.90
11497;DHT22;5805;51.542;7.230;2023-05-18T04:24:04;8.80;99.90
11497;DHT22;5805;51.542;7.230;2023-05-18T04:26:30;8.90;99.90
11497;DHT22;5805;51.542;7.230;2023-05-18T04:28:56;8.90;99.90
11497;DHT22;5805;51.542;7.230;2023-05-18T04:31:21;8.90;99.90
11497;DHT22;5805;51.542;7.230;2023-05-18T04:33:48;8.90;99.90
11497;DHT22;5805;51.542;7.230;2023-05-18T04:36:14;8.90;99.90
11497;DHT22;5805;51.542;7.230;2023-05-18T04:38:40;9.00;99.90
11497;DHT22;5805;51.542;7.230;2023-05-18T04:41:05;9.10;99.90
11497;DHT22;5805;51.542;7.230;2023-05-18T04:43:31;9.00;99.90
11497;DHT22;5805;51.542;7.230;2023-05-18T04:45:57;8.90;99.90
11497;DHT22;5805;51.542;7.230;2023-05-18T04:48:23;8.90;99.90
11497;DHT22;5805;51.542;7.230;2023-05-18T04:50:50;8.80;99.90
11497;DHT22;5805;51.542;7.230;2023-05-18T04:53:16;9.00;99.90
11497;DHT22;5805;51.542;7.230;2023-05-18T04:55:42;9.10;99.90
11497;DHT22;5805;51.542;7.230;2023-05-18T04:58:07;9.10;99.90
11497;DHT22;5805;51.542;7.230;2023-05-18T05:00:33;9.00;99.90
11497;DHT22;5805;51.542;7.230;2023-05-18T05:02:59;9.00;99.90
11497;DHT22;5805;51.542;7.230;2023-05-18T05:05:25;8.70;99.90
11497;DHT22;5805;51.542;7.230;2023-05-18T05:07:52;9.10;99.90
11497;DHT22;5805;51.542;7.230;2023-05-18T05:10:18;9.30;99.90
11497;DHT22;5805;51.542;7.230;2023-05-18T05:12:44;8.40;99.90
11497;DHT22;5805;51.542;7.230;2023-05-18T05:15:10;8.50;99.90
11497;DHT22;5805;51.542;7.230;2023-05-18T05:17:36;8.70;99.90
11497;DHT22;5805;51.542;7.230;2023-05-18T05:20:02;8.70;99.90
11497;DHT22;5805;51.542;7.230;2023-05-18T05:22:27;8.80;99.90
11497;DHT22;5805;51.542;7.230;2023-05-18T05:24:54;8.80;99.90
11497;DHT22;5805;51.542;7.230;2023-05-18T05:27:20;8.80;99.90
11497;DHT22;5805;51.542;7.230;2023-05-18T05:29:46;8.90;99.90
11497;DHT22;5805;51.542;7.230;2023-05-18T05:32:12;9.00;99.90
11497;DHT22;5805;51.542;7.230;2023-05-18T05:34:38;9.10;99.90
11497;DHT22;5805;51.542;7.230;2023-05-18T05:37:04;9.20;99.90
11497;DHT22;5805;51.542;7.230;2023-05-18T05:39:30;9.60;99.90
11497;DHT22;5805;51.542;7.230;2023-05-18T05:41:57;9.40;99.90
11497;DHT22;5805;51.542;7.230;2023-05-18T05:44:22;9.40;99.90
11497;DHT22;5805;51.542;7.230;2023-05-18T05:46:48;9.50;99.90
11497;DHT22;5805;51.542;7.230;2023-05-18T05:49:14;9.40;99.90
11497;DHT22;5805;51.542;7.230;2023-05-18T05:51:39;9.70;99.90
11497;DHT22;5805;51.542;7.230;2023-05-18T05:54:05;9.40;99.90
11497;DHT22;5805;51.542;7.230;2023-05-18T05:56:31;9.60;99.90
11497;DHT22;5805;51.542;7.230;2023-05-18T05:58:58;9.60;99.90
11497;DHT22;5805;51.542;7.230;2023-05-18T06:01:23;9.70;99.90
11497;DHT22;5805;51.542;7.230;2023-05-18T06:03:49;9.90;99.90
11497;DHT22;5805;51.542;7.230;2023-05-18T06:06:15;9.90;99.90
11497;DHT22;5805;51.542;7.230;2023-05-18T06:08:40;10.00;99.90
11497;DHT22;5805;51.542;7.230;2023-05-18T06:11:06;10.10;99.90
11497;DHT22;5805;51.542;7.230;2023-05-18T06:13:32;10.60;99.90
11497;DHT22;5805;51.542;7.230;2023-05-18T06:15:59;10.40;99.90
11497;DHT22;5805;51.542;7.230;2023-05-18T06:18:25;10.00;99.90
11497;DHT22;5805;51.542;7.230;2023-05-18T06:20:50;10.30;99.90
11497;DHT22;5805;51.542;7.230;2023-05-18T06:23:16;10.10;99.90
11497;DHT22;5805;51.542;7.230;2023-05-18T06:25:42;10.10;99.90
11497;DHT22;5805;51.542;7.230;2023-05-18T06:28:07;10.20;99.90
11497;DHT22;5805;51.542;7.230;2023-05-18T06:30:33;10.20;99.90
11497;DHT22;5805;51.542;7.230;2023-05-18T06:33:00;10.30;99.90
11497;DHT22;5805;51.542;7.230;2023-05-18T06:35:26;10.50;99.90
11497;DHT22;5805;51.542;7.230;2023-05-18T06:37:52;10.70;99.90
11497;DHT22;5805;51.542;7.230;2023-05-18T06:40:17;11.00;99.90
11497;DHT22;5805;51.542;7.230;2023-05-18T06:42:43;11.20;99.90
11497;DHT22;5805;51.542;7.230;2023-05-18T06:45:10;11.10;99.90
11497;DHT22;5805;51.542;7.230;2023-05-18T06:47:35;11.20;99.90
11497;DHT22;5805;51.542;7.230;2023-05-18T06:50:04;11.40;99.90
11497;DHT22;5805;51.542;7.230;2023-05-18T06:52:30;11.40;99.90
11497;DHT22;5805;51.542;7.230;2023-05-18T06:54:56;11.50;99.90
11497;DHT22;5805;51.542;7.230;2023-05-18T06:57:21;11.50;99.90
11497;DHT22;5805;51.542;7.230;2023-05-18T06:59:47;11.60;99.90
11497;DHT22;5805;51.542;7.230;2023-05-18T07:02:13;11.70;99.90
11497;DHT22;5805;51.542;7.230;2023-05-18T07:04:38;11.70;99.90
11497;DHT22;5805;51.542;7.230;2023-05-18T07:07:05;11.90;99.90
11497;DHT22;5805;51.542;7.230;2023-05-18T07:09:31;12.20;99.70
11497;DHT22;5805;51.542;7.230;2023-05-18T07:11:57;12.30;99.00
11497;DHT22;5805;51.542;7.230;2023-05-18T07:14:22;12.50;99.20
11497;DHT22;5805;51.542;7.230;2023-05-18T07:16:48;12.60;97.40
11497;DHT22;5805;51.542;7.230;2023-05-18T07:19:14;12.60;97.70
11497;DHT22;5805;51.542;7.230;2023-05-18T07:21:40;12.70;98.30
11497;DHT22;5805;51.542;7.230;2023-05-18T07:24:07;13.10;96.40
11497;DHT22;5805;51.542;7.230;2023-05-18T07:26:32;12.70;97.40
11497;DHT22;5805;51.542;7.230;2023-05-18T07:28:58;12.60;97.30
11497;DHT22;5805;51.542;7.230;2023-05-18T07:31:25;12.60;96.50
11497;DHT22;5805;51.542;7.230;2023-05-18T07:33:51;12.70;96.10
11497;DHT22;5805;51.542;7.230;2023-05-18T07:36:16;12.70;96.70
11497;DHT22;5805;51.542;7.230;2023-05-18T07:38:42;12.80;96.60
11497;DHT22;5805;51.542;7.230;2023-05-18T07:41:09;13.00;96.50
11497;DHT22;5805;51.542;7.230;2023-05-18T07:43:35;13.10;95.70
11497;DHT22;5805;51.542;7.230;2023-05-18T07:46:01;13.30;95.60
11497;DHT22;5805;51.542;7.230;2023-05-18T07:48:26;13.50;95.00
11497;DHT22;5805;51.542;7.230;2023-05-18T07:50:52;13.70;94.50
11497;DHT22;5805;51.542;7.230;2023-05-18T07:53:18;13.80;94.50
11497;DHT22;5805;51.542;7.230;2023-05-18T07:55:43;14.10;92.60
11497;DHT22;5805;51.542;7.230;2023-05-18T07:58:10;14.40;91.60
11497;DHT22;5805;51.542;7.230;2023-05-18T08:00:36;14.90;89.70
11497;DHT22;5805;51.542;7.230;2023-05-18T08:03:02;16.30;84.70
11497;DHT22;5805;51.542;7.230;2023-05-18T08:05:28;19.20;67.40
11497;DHT22;5805;51.542;7.230;2023-05-18T08:07:53;22.40;56.40
11497;DHT22;5805;51.542;7.230;2023-05-18T08:10:19;24.50;47.70
11497;DHT22;5805;51.542;7.230;2023-05-18T08:12:45;26.30;39.50
11497;DHT22;5805;51.542;7.230;2023-05-18T08:15:12;27.10;35.60
11497;DHT22;5805;51.542;7.230;2023-05-18T08:17:37;26.80;35.20
11497;DHT22;5805;51.542;7.230;2023-05-18T08:20:04;26.70;33.50
11497;DHT22;5805;51.542;7.230;2023-05-18T08:22:30;27.30;33.80
11497;DHT22;5805;51.542;7.230;2023-05-18T08:24:55;26.90;31.40
11497;DHT22;5805;51.542;7.230;2023-05-18T08:27:21;27.70;32.60
11497;DHT22;5805;51.542;7.230;2023-05-18T08:29:47;28.00;31.10
11497;DHT22;5805;51.542;7.230;2023-05-18T08:32:15;28.60;30.90
11497;DHT22;5805;51.542;7.230;2023-05-18T08:34:40;29.80;31.10
11497;DHT22;5805;51.542;7.230;2023-05-18T08:37:06;30.10;29.70
11497;DHT22;5805;51.542;7.230;2023-05-18T08:39:32;29.40;28.60
11497;DHT22;5805;51.542;7.230;2023-05-18T08:42:01;26.50;28.40
11497;DHT22;5805;51.542;7.230;2023-05-18T08:44:32;25.00;31.20
11497;DHT22;5805;51.542;7.230;2023-05-18T08:47:00;22.90;33.30
11497;DHT22;5805;51.542;7.230;2023-05-18T08:49:30;21.60;36.10
11497;DHT22;5805;51.542;7.230;2023-05-18T08:52:01;20.40;38.10
11497;DHT22;5805;51.542;7.230;2023-05-18T08:54:29;19.70;40.30
11497;DHT22;5805;51.542;7.230;2023-05-18T08:56:57;19.10;41.20
11497;DHT22;5805;51.542;7.230;2023-05-18T08:59:24;18.90;42.50
11497;DHT22;5805;51.542;7.230;2023-05-18T09:01:50;18.60;43.00
11497;DHT22;5805;51.542;7.230;2023-05-18T09:04:17;18.40;43.70
11497;DHT22;5805;51.542;7.230;2023-05-18T09:06:47;18.70;44.50
11497;DHT22;5805;51.542;7.230;2023-05-18T09:09:13;18.60;44.80
11497;DHT22;5805;51.542;7.230;2023-05-18T09:11:39;18.40;44.30
11497;DHT22;5805;51.542;7.230;2023-05-18T09:14:05;18.60;44.90
11497;DHT22;5805;51.542;7.230;2023-05-18T09:16:31;18.70;44.70
11497;DHT22;5805;51.542;7.230;2023-05-18T09:18:57;18.80;44.80
11497;DHT22;5805;51.542;7.230;2023-05-18T09:21:22;18.90;44.90
11497;DHT22;5805;51.542;7.230;2023-05-18T09:23:50;18.70;44.50
11497;DHT22;5805;51.542;7.230;2023-05-18T09:26:16;18.70;45.00
11497;DHT22;5805;51.542;7.230;2023-05-18T09:28:43;18.60;45.60
11497;DHT22;5805;51.542;7.230;2023-05-18T09:31:11;18.60;46.40
11497;DHT22;5805;51.542;7.230;2023-05-18T09:33:42;19.10;46.00
11497;DHT22;5805;51.542;7.230;2023-05-18T09:36:09;19.00;46.50
11497;DHT22;5805;51.542;7.230;2023-05-18T09:38:36;19.00;46.10
11497;DHT22;5805;51.542;7.230;2023-05-18T09:41:08;18.70;45.80
11497;DHT22;5805;51.542;7.230;2023-05-18T09:43:34;18.60;46.20
11497;DHT22;5805;51.542;7.230;2023-05-18T09:46:05;18.50;46.50
11497;DHT22;5805;51.542;7.230;2023-05-18T09:48:31;18.30;46.40
11497;DHT22;5805;51.542;7.230;2023-05-18T09:50:58;18.10;47.20
11497;DHT22;5805;51.542;7.230;2023-05-18T09:53:23;18.20;47.80
11497;DHT22;5805;51.542;7.230;2023-05-18T09:55:49;18.20;47.40
11497;DHT22;5805;51.542;7.230;2023-05-18T09:58:16;18.40;48.20
11497;DHT22;5805;51.542;7.230;2023-05-18T10:00:43;18.40;47.40
11497;DHT22;5805;51.542;7.230;2023-05-18T10:03:19;18.60;48.40
11497;DHT22;5805;51.542;7.230;2023-05-18T10:05:45;19.00;47.80
11497;DHT22;5805;51.542;7.230;2023-05-18T10:08:12;18.90;47.20
11497;DHT22;5805;51.542;7.230;2023-05-18T10:10:38;18.80;47.40
11497;DHT22;5805;51.542;7.230;2023-05-18T10:13:04;18.60;46.60
11497;DHT22;5805;51.542;7.230;2023-05-18T10:15:31;18.70;47.60
11497;DHT22;5805;51.542;7.230;2023-05-18T10:17:58;19.00;48.90
11497;DHT22;5805;51.542;7.230;2023-05-18T10:20:25;19.30;47.70
11497;DHT22;5805;51.542;7.230;2023-05-18T10:22:51;19.30;47.20
11497;DHT22;5805;51.542;7.230;2023-05-18T10:25:20;19.30;46.90
11497;DHT22;5805;51.542;7.230;2023-05-18T10:27:47;18.70;47.40
11497;DHT22;5805;51.542;7.230;2023-05-18T10:30:13;18.50;48.40
11497;DHT22;5805;51.542;7.230;2023-05-18T10:32:41;18.70;49.00
11497;DHT22;5805;51.542;7.230;2023-05-18T10:35:09;18.70;48.50
11497;DHT22;5805;51.542;7.230;2023-05-18T10:37:37;18.90;48.40
11497;DHT22;5805;51.542;7.230;2023-05-18T10:40:05;18.90;47.50
11497;DHT22;5805;51.542;7.230;2023-05-18T10:42:32;18.80;48.00
11497;DHT22;5805;51.542;7.230;2023-05-18T10:44:59;18.70;48.50
11497;DHT22;5805;51.542;7.230;2023-05-18T10:47:26;18.40;49.10
11497;DHT22;5805;51.542;7.230;2023-05-18T10:49:53;18.60;48.80
11497;DHT22;5805;51.542;7.230;2023-05-18T10:52:19;18.60;49.30
11497;DHT22;5805;51.542;7.230;2023-05-18T10:54:46;18.40;48.40
11497;DHT22;5805;51.542;7.230;2023-05-18T10:57:14;18.30;49.00
11497;DHT22;5805;51.542;7.230;2023-05-18T10:59:42;18.50;49.80
11497;DHT22;5805;51.542;7.230;2023-05-18T11:02:09;18.60;49.90
11497;DHT22;5805;51.542;7.230;2023-05-18T11:04:38;18.60;49.30
11497;DHT22;5805;51.542;7.230;2023-05-18T11:07:09;18.90;49.50
11497;DHT22;5805;51.542;7.230;2023-05-18T11:09:35;19.10;49.90
11497;DHT22;5805;51.542;7.230;2023-05-18T11:12:01;19.10;49.70
11497;DHT22;5805;51.542;7.230;2023-05-18T11:14:28;19.30;50.50
11497;DHT22;5805;51.542;7.230;2023-05-18T11:17:14;19.50;50.20
11497;DHT22;5805;51.542;7.230;2023-05-18T11:19:40;19.50;48.80
11497;DHT22;5805;51.542;7.230;2023-05-18T11:22:17;19.40;47.50
11497;DHT22;5805;51.542;7.230;2023-05-18T11:24:42;19.10;47.80
11497;DHT22;5805;51.542;7.230;2023-05-18T11:27:13;19.00;49.50
11497;DHT22;5805;51.542;7.230;2023-05-18T11:29:40;19.30;50.30
11497;DHT22;5805;51.542;7.230;2023-05-18T11:32:21;19.70;51.20
11497;DHT22;5805;51.542;7.230;2023-05-18T11:34:49;19.80;48.50
11497;DHT22;5805;51.542;7.230;2023-05-18T11:37:45;19.60;47.70
11497;DHT22;5805;51.542;7.230;2023-05-18T11:40:03;19.20;48.30
11497;DHT22;5805;51.542;7.230;2023-05-18T11:42:31;18.90;49.40
11497;DHT22;5805;51.542;7.230;2023-05-18T11:45:05;18.80;50.20
11497;DHT22;5805;51.542;7.230;2023-05-18T11:47:30;19.00;50.60
11497;DHT22;5805;51.542;7.230;2023-05-18T11:49:56;19.10;49.40
11497;DHT22;5805;51.542;7.230;2023-05-18T11:52:24;19.00;48.90
11497;DHT22;5805;51.542;7.230;2023-05-18T11:54:51;18.70;49.90
11497;DHT22;5805;51.542;7.230;2023-05-18T11:57:18;18.90;51.00
11497;DHT22;5805;51.542;7.230;2023-05-18T11:59:45;19.10;50.40
11497;DHT22;5805;51.542;7.230;2023-05-18T12:02:17;19.10;49.70
11497;DHT22;5805;51.542;7.230;2023-05-18T12:04:44;18.90;50.20
11497;DHT22;5805;51.542;7.230;2023-05-18T12:07:11;19.00;51.00
11497;DHT22;5805;51.542;7.230;2023-05-18T12:09:40;19.20;52.00
11497;DHT22;5805;51.542;7.230;2023-05-18T12:12:07;19.40;51.40
11497;DHT22;5805;51.542;7.230;2023-05-18T12:14:34;19.10;49.60
11497;DHT22;5805;51.542;7.230;2023-05-18T12:17:00;19.10;49.90
11497;DHT22;5805;51.542;7.230;2023-05-18T12:19:26;19.00;50.20
11497;DHT22;5805;51.542;7.230;2023-05-18T12:21:52;19.00;51.00
11497;DHT22;5805;51.542;7.230;2023-05-18T12:24:18;19.00;50.50
11497;DHT22;5805;51.542;7.230;2023-05-18T12:26:45;18.80;50.00
11497;DHT22;5805;51.542;7.230;2023-05-18T12:29:11;18.70;51.00
11497;DHT22;5805;51.542;7.230;2023-05-18T12:31:39;18.60;50.60
11497;DHT22;5805;51.542;7.230;2023-05-18T12:34:04;18.80;51.40
11497;DHT22;5805;51.542;7.230;2023-05-18T12:36:30;19.00;51.00
11497;DHT22;5805;51.542;7.230;2023-05-18T12:38:56;18.80;50.80
11497;DHT22;5805;51.542;7.230;2023-05-18T12:41:23;18.80;52.00
11497;DHT22;5805;51.542;7.230;2023-05-18T12:43:50;18.50;50.80
11497;DHT22;5805;51.542;7.230;2023-05-18T12:46:16;18.50;52.00
11497;DHT22;5805;51.542;7.230;2023-05-18T12:48:45;18.50;52.20
11497;DHT22;5805;51.542;7.230;2023-05-18T12:51:17;18.50;51.80
11497;DHT22;5805;51.542;7.230;2023-05-18T12:53:42;18.50;50.60
11497;DHT22;5805;51.542;7.230;2023-05-18T12:56:08;18.50;51.80
11497;DHT22;5805;51.542;7.230;2023-05-18T12:58:34;18.60;51.80
11497;DHT22;5805;51.542;7.230;2023-05-18T13:01:06;18.80;53.20
11497;DHT22;5805;51.542;7.230;2023-05-18T13:03:32;19.00;53.00
11497;DHT22;5805;51.542;7.230;2023-05-18T13:06:01;19.30;52.10
11497;DHT22;5805;51.542;7.230;2023-05-18T13:08:27;19.40;51.90
11497;DHT22;5805;51.542;7.230;2023-05-18T13:10:53;19.40;51.00
11497;DHT22;5805;51.542;7.230;2023-05-18T13:13:24;19.00;51.00
11497;DHT22;5805;51.542;7.230;2023-05-18T13:15:50;19.00;52.30
11497;DHT22;5805;51.542;7.230;2023-05-18T13:18:17;18.90;52.00
11497;DHT22;5805;51.542;7.230;2023-05-18T13:20:45;18.70;50.50
11497;DHT22;5805;51.542;7.230;2023-05-18T13:23:12;18.60;51.30
11497;DHT22;5805;51.542;7.230;2023-05-18T13:25:38;18.50;51.70
11497;DHT22;5805;51.542;7.230;2023-05-18T13:28:04;18.30;51.50
11497;DHT22;5805;51.542;7.230;2023-05-18T13:30:31;18.20;51.90
11497;DHT22;5805;51.542;7.230;2023-05-18T13:32:57;18.20;52.20
11497;DHT22;5805;51.542;7.230;2023-05-18T13:35:24;18.00;52.40
11497;DHT22;5805;51.542;7.230;2023-05-18T13:37:51;18.30;54.00
11497;DHT22;5805;51.542;7.230;2023-05-18T13:40:17;18.30;53.10
11497;DHT22;5805;51.542;7.230;2023-05-18T13:42:44;18.40;53.70
11497;DHT22;5805;51.542;7.230;2023-05-18T13:45:10;18.60;54.50
11497;DHT22;5805;51.542;7.230;2023-05-18T13:47:36;18.80;53.40
11497;DHT22;5805;51.542;7.230;2023-05-18T13:50:04;18.90;53.30
11497;DHT22;5805;51.542;7.230;2023-05-18T13:52:31;19.00;52.90
11497;DHT22;5805;51.542;7.230;2023-05-18T13:54:57;18.90;51.90
11497;DHT22;5805;51.542;7.230;2023-05-18T13:57:23;19.00;52.60
11497;DHT22;5805;51.542;7.230;2023-05-18T13:59:48;18.60;52.30
11497;DHT22;5805;51.542;7.230;2023-05-18T14:02:14;18.50;52.40
11497;DHT22;5805;51.542;7.230;2023-05-18T14:04:40;18.40;52.30
11497;DHT22;5805;51.542;7.230;2023-05-18T14:07:05;18.00;52.10
11497;DHT22;5805;51.542;7.230;2023-05-18T14:09:32;17.80;53.30
11497;DHT22;5805;51.542;7.230;2023-05-18T14:11:58;17.80;54.00
11497;DHT22;5805;51.542;7.230;2023-05-18T14:14:24;17.80;54.10
11497;DHT22;5805;51.542;7.230;2023-05-18T14:16:50;17.80;54.50
11497;DHT22;5805;51.542;7.230;2023-05-18T14:19:15;17.90;54.70
11497;DHT22;5805;51.542;7.230;2023-05-18T14:21:41;18.00;54.50
11497;DHT22;5805;51.542;7.230;2023-05-18T14:24:07;17.90;54.30
11497;DHT22;5805;51.542;7.230;2023-05-18T14:26:35;17.80;54.80
11497;DHT22;5805;51.542;7.230;2023-05-18T14:29:01;17.80;55.40
11497;DHT22;5805;51.542;7.230;2023-05-18T14:31:27;17.60;55.30
11497;DHT22;5805;51.542;7.230;2023-05-18T14:33:52;17.70;55.00
11497;DHT22;5805;51.542;7.230;2023-05-18T14:36:18;17.70;55.60
11497;DHT22;5805;51.542;7.230;2023-05-18T14:38:44;17.80;56.80
11497;DHT22;5805;51.542;7.230;2023-05-18T14:41:10;17.90;55.50
11497;DHT22;5805;51.542;7.230;2023-05-18T14:43:37;17.70;54.40
11497;DHT22;5805;51.542;7.230;2023-05-18T14:46:03;17.60;55.20
11497;DHT22;5805;51.542;7.230;2023-05-18T14:48:28;17.40;55.40
11497;DHT22;5805;51.542;7.230;2023-05-18T14:50:54;17.30;55.80
11497;DHT22;5805;51.542;7.230;2023-05-18T14:53:20;17.30;55.90
11497;DHT22;5805;51.542;7.230;2023-05-18T14:55:46;17.40;56.90
11497;DHT22;5805;51.542;7.230;2023-05-18T14:58:11;17.60;59.20
11497;DHT22;5805;51.542;7.230;2023-05-18T15:00:38;17.70;56.70
11497;DHT22;5805;51.542;7.230;2023-05-18T15:03:04;17.70;57.00
11497;DHT22;5805;51.542;7.230;2023-05-18T15:05:30;17.70;57.10
11497;DHT22;5805;51.542;7.230;2023-05-18T15:07:56;17.70;56.30
11497;DHT22;5805;51.542;7.230;2023-05-18T15:10:21;17.70;57.40
11497;DHT22;5805;51.542;7.230;2023-05-18T15:12:47;17.70;56.60
11497;DHT22;5805;51.542;7.230;2023-05-18T15:15:13;17.60;56.30
11497;DHT22;5805;51.542;7.230;2023-05-18T15:17:40;17.60;56.90
11497;DHT22;5805;51.542;7.230;2023-05-18T15:20:07;17.60;57.20
11497;DHT22;5805;51.542;7.230;2023-05-18T15:22:34;17.50;57.60
11497;DHT22;5805;51.542;7.230;2023-05-18T15:24:59;17.60;59.00
11497;DHT22;5805;51.542;7.230;2023-05-18T15:27:25;17.50;58.00
11497;DHT22;5805;51.542;7.230;2023-05-18T15:29:51;17.30;57.70
11497;DHT22;5805;51.542;7.230;2023-05-18T15:32:16;17.20;58.10
11497;DHT22;5805;51.542;7.230;2023-05-18T15:34:44;17.30;58.30
11497;DHT22;5805;51.542;7.230;2023-05-18T15:37:09;17.20;58.30
11497;DHT22;5805;51.542;7.230;2023-05-18T15:39:36;17.30;59.30
11497;DHT22;5805;51.542;7.230;2023-05-18T15:42:02;17.30;58.90
11497;DHT22;5805;51.542;7.230;2023-05-18T15:44:28;17.30;59.10
11497;DHT22;5805;51.542;7.230;2023-05-18T15:46:53;17.20;58.50
11497;DHT22;5805;51.542;7.230;2023-05-18T15:49:19;17.30;58.20
11497;DHT22;5805;51.542;7.230;2023-05-18T15:51:46;17.30;58.50